createdAt,value
2023-03-31T00:00:56.443Z,100.00
2023-03-31T00:03:36.474Z,100.00
2023-03-31T00:06:27.137Z,100.00
2023-03-31T00:09:04.263Z,100.00
2023-03-31T00:11:36.257Z,100.00
2023-03-31T00:14:16.698Z,100.00
2023-03-31T00:16:51.135Z,100.00
2023-03-31T00:19:35.708Z,100.00
2023-03-31T00:22:14.586Z,100.00
2023-03-31T00:24:47.717Z,100.00
2023-03-31T00:27:18.277Z,100.00
2023-03-31T00:30:07.529Z,100.00
2023-03-31T00:32:47.854Z,100.00
2023-03-31T00:35:22.055Z,100.00
2023-03-31T00:38:04.324Z,100.00
2023-03-31T00:40:37.606Z,100.00
2023-03-31T00:43:30.946Z,100.00
2023-03-31T00:46:10.377Z,100.00
2023-03-31T00:48:54.934Z,100.00
2023-03-31T00:51:32.541Z,100.00
2023-03-31T00:54:10.051Z,100.00
2023-03-31T00:56:44.975Z,100.00
2023-03-31T00:59:29.700Z,100.00
2023-03-31T01:02:06.281Z,100.00
2023-03-31T01:04:45.860Z,100.00
2023-03-31T01:07:24.551Z,100.00
2023-03-31T01:10:02.394Z,100.00
2023-03-31T01:12:42.796Z,100.00
2023-03-31T01:15:27.387Z,100.00
2023-03-31T01:18:16.722Z,100.00
2023-03-31T01:21:18.003Z,100.00
2023-03-31T01:24:08.434Z,100.00
2023-03-31T01:26:59.385Z,100.00
2023-03-31T01:29:58.415Z,100.00
2023-03-31T01:32:49.108Z,100.00
2023-03-31T01:35:43.408Z,100.00
2023-03-31T01:38:45.503Z,100.00
2023-03-31T01:41:36.613Z,100.00
2023-03-31T01:44:37.025Z,100.00
2023-03-31T01:47:16.633Z,100.00
2023-03-31T01:50:02.682Z,100.00
2023-03-31T01:52:45.214Z,100.00
2023-03-31T01:55:45.915Z,100.00
2023-03-31T01:58:44.185Z,100.00
2023-03-31T02:01:31.488Z,100.00
2023-03-31T02:04:15.423Z,100.00
2023-03-31T02:07:02.194Z,100.00
2023-03-31T02:09:41.404Z,100.00
2023-03-31T02:12:14.012Z,100.00
2023-03-31T02:14:55.385Z,100.00
2023-03-31T02:17:40.687Z,100.00
2023-03-31T02:20:19.104Z,100.00
2023-03-31T02:23:06.273Z,100.00
2023-03-31T02:25:47.595Z,100.00
2023-03-31T02:28:37.266Z,100.00
2023-03-31T02:31:30.223Z,100.00
2023-03-31T02:34:17.893Z,100.00
2023-03-31T02:37:02.817Z,100.00
2023-03-31T02:39:39.998Z,100.00
2023-03-31T02:42:11.385Z,100.00
2023-03-31T02:44:51.204Z,100.00
2023-03-31T02:47:31.445Z,100.00
2023-03-31T02:50:17.857Z,100.00
2023-03-31T02:53:01.368Z,100.00
2023-03-31T02:56:07.309Z,100.00
2023-03-31T02:58:55.877Z,100.00
2023-03-31T03:01:41.813Z,100.00
2023-03-31T03:04:34.776Z,100.00
2023-03-31T03:07:30.528Z,100.00
2023-03-31T03:10:21.142Z,100.00
2023-03-31T03:13:00.487Z,100.00
2023-03-31T03:18:45.578Z,100.00
2023-03-31T03:21:33.143Z,100.00
2023-03-31T03:24:06.619Z,100.00
2023-03-31T03:26:53.836Z,100.00
2023-03-31T03:29:32.639Z,100.00
2023-03-31T03:32:21.557Z,100.00
2023-03-31T03:34:54.354Z,100.00
2023-03-31T03:37:32.698Z,100.00
2023-03-31T03:40:16.070Z,100.00
2023-03-31T03:43:08.338Z,100.00
2023-03-31T03:46:01.323Z,100.00
2023-03-31T03:49:01.573Z,100.00
2023-03-31T03:52:28.309Z,100.00
2023-03-31T03:55:51.726Z,100.00
2023-03-31T03:58:45.305Z,100.00
2023-03-31T04:02:06.149Z,100.00
2023-03-31T04:05:00.558Z,100.00
2023-03-31T04:14:21.546Z,100.00
2023-03-31T04:21:06.058Z,100.00
2023-03-31T04:23:47.912Z,100.00
2023-03-31T04:26:39.651Z,100.00
2023-03-31T04:29:37.858Z,100.00
2023-03-31T04:32:23.820Z,100.00
2023-03-31T04:35:05.560Z,100.00
2023-03-31T04:37:46.061Z,100.00
2023-03-31T04:41:02.985Z,100.00
2023-03-31T04:43:43.640Z,100.00
2023-03-31T04:46:28.849Z,100.00
2023-03-31T04:49:03.398Z,100.00
2023-03-31T04:51:48.219Z,100.00
2023-03-31T04:54:38.008Z,100.00
2023-03-31T04:57:19.760Z,100.00
2023-03-31T04:59:57.916Z,100.00
2023-03-31T05:02:45.665Z,100.00
2023-03-31T05:05:32.658Z,100.00
2023-03-31T05:08:14.376Z,100.00
2023-03-31T05:10:51.934Z,100.00
2023-03-31T05:14:19.520Z,100.00
2023-03-31T05:17:25.608Z,100.00
2023-03-31T05:20:07.648Z,100.00
2023-03-31T05:22:55.179Z,100.00
2023-03-31T05:25:39.615Z,100.00
2023-03-31T05:28:45.121Z,100.00
2023-03-31T05:31:32.028Z,100.00
2023-03-31T05:34:26.359Z,100.00
2023-03-31T05:37:13.484Z,100.00
2023-03-31T05:40:04.526Z,100.00
2023-03-31T05:43:01.571Z,100.00
2023-03-31T05:45:59.793Z,100.00
2023-03-31T05:48:58.296Z,100.00
2023-03-31T05:51:58.711Z,100.00
2023-03-31T05:55:05.794Z,100.00
2023-03-31T05:58:10.691Z,100.00
2023-03-31T06:01:27.867Z,100.00
2023-03-31T06:04:15.216Z,100.00
2023-03-31T06:07:14.007Z,100.00
2023-03-31T06:10:08.747Z,100.00
2023-03-31T06:12:52.917Z,100.00
2023-03-31T06:15:39.896Z,100.00
2023-03-31T06:18:20.047Z,100.00
2023-03-31T06:21:18.974Z,100.00
2023-03-31T06:24:17.146Z,100.00
2023-03-31T06:26:59.577Z,100.00
2023-03-31T06:29:29.776Z,100.00
2023-03-31T06:32:07.880Z,100.00
2023-03-31T06:35:01.789Z,100.00
2023-03-31T06:37:38.857Z,100.00
2023-03-31T06:40:15.051Z,100.00
2023-03-31T06:43:04.662Z,100.00
2023-03-31T06:45:42.112Z,100.00
2023-03-31T06:48:23.654Z,100.00
2023-03-31T06:51:00.936Z,100.00
2023-03-31T06:53:51.263Z,100.00
2023-03-31T06:56:32.968Z,100.00
2023-03-31T06:59:18.776Z,100.00
2023-03-31T07:01:59.786Z,100.00
2023-03-31T07:04:38.721Z,100.00
2023-03-31T07:07:34.128Z,100.00
2023-03-31T07:10:34.392Z,100.00
2023-03-31T07:13:16.862Z,100.00
2023-03-31T07:16:11.825Z,100.00
2023-03-31T07:18:55.917Z,100.00
2023-03-31T07:21:32.725Z,100.00
2023-03-31T07:24:11.830Z,100.00
2023-03-31T07:27:06.961Z,100.00
2023-03-31T07:29:46.854Z,100.00
2023-03-31T07:32:20.758Z,100.00
2023-03-31T07:34:58.816Z,100.00
2023-03-31T07:37:36.602Z,100.00
2023-03-31T07:40:11.006Z,100.00
2023-03-31T07:42:56.346Z,100.00
2023-03-31T07:45:29.651Z,100.00
2023-03-31T07:48:23.516Z,100.00
2023-03-31T07:50:56.892Z,100.00
2023-03-31T07:53:46.553Z,100.00
2023-03-31T07:57:01.676Z,100.00
2023-03-31T07:59:33.657Z,100.00
2023-03-31T08:02:04.027Z,100.00
2023-03-31T08:04:36.519Z,100.00
2023-03-31T08:07:07.958Z,100.00
2023-03-31T08:09:38.635Z,100.00
2023-03-31T08:12:12.714Z,100.00
2023-03-31T08:14:46.633Z,100.00
2023-03-31T08:17:23.001Z,100.00
2023-03-31T08:19:56.540Z,100.00
2023-03-31T08:22:27.141Z,98.31
2023-03-31T08:25:04.085Z,94.11
2023-03-31T08:27:36.157Z,94.63
2023-03-31T08:30:07.038Z,94.82
2023-03-31T08:32:41.648Z,95.53
2023-03-31T08:35:13.933Z,96.46
2023-03-31T08:37:44.340Z,97.33
2023-03-31T08:40:16.946Z,95.04
2023-03-31T08:42:48.956Z,95.57
2023-03-31T08:45:22.602Z,96.33
2023-03-31T08:47:55.491Z,97.31
2023-03-31T08:50:29.931Z,96.38
2023-03-31T08:53:04.466Z,93.06
2023-03-31T08:55:39.533Z,90.97
2023-03-31T08:58:15.257Z,88.49
2023-03-31T09:00:48.899Z,86.24
2023-03-31T09:03:25.445Z,87.68
2023-03-31T09:06:02.255Z,87.73
2023-03-31T09:08:38.394Z,89.64
2023-03-31T09:11:12.535Z,89.69
2023-03-31T09:13:54.366Z,90.58
2023-03-31T09:16:30.669Z,87.05
2023-03-31T09:19:01.947Z,85.04
2023-03-31T09:21:35.622Z,85.05
2023-03-31T09:24:09.830Z,86.50
2023-03-31T09:26:42.565Z,86.12
2023-03-31T09:29:19.087Z,86.54
2023-03-31T09:31:50.830Z,84.51
2023-03-31T09:34:30.441Z,82.78
2023-03-31T09:37:02.513Z,79.79
2023-03-31T09:39:33.122Z,73.30
2023-03-31T09:42:03.897Z,73.48
2023-03-31T09:44:38.772Z,76.84
2023-03-31T09:47:12.946Z,80.77
2023-03-31T09:49:54.156Z,82.53
2023-03-31T09:52:32.331Z,84.55
2023-03-31T09:55:02.592Z,86.48
2023-03-31T09:57:34.613Z,85.83
2023-03-31T10:00:13.977Z,87.12
2023-03-31T10:02:46.019Z,84.85
2023-03-31T10:05:30.605Z,85.89
2023-03-31T10:08:24.307Z,85.47
2023-03-31T10:10:55.798Z,84.77
2023-03-31T10:13:29.624Z,84.11
2023-03-31T10:16:04.869Z,86.07
2023-03-31T10:18:36.437Z,85.93
2023-03-31T10:21:07.311Z,87.49
2023-03-31T10:23:47.920Z,87.55
2023-03-31T10:26:20.222Z,88.14
2023-03-31T10:28:53.063Z,87.23
2023-03-31T10:31:26.516Z,89.94
2023-03-31T10:33:59.014Z,92.13
2023-03-31T10:36:32.117Z,93.68
2023-03-31T10:39:07.594Z,95.67
2023-03-31T10:41:41.682Z,99.05
2023-03-31T10:44:33.436Z,100.00
2023-03-31T10:47:08.417Z,100.00
2023-03-31T10:49:40.230Z,100.00
2023-03-31T10:52:17.970Z,100.00
2023-03-31T10:54:51.866Z,100.00
2023-03-31T10:57:26.839Z,100.00
2023-03-31T11:00:13.497Z,100.00
2023-03-31T11:03:04.323Z,100.00
2023-03-31T11:05:37.949Z,99.88
2023-03-31T11:08:25.307Z,97.93
2023-03-31T11:11:05.105Z,98.93
2023-03-31T11:13:40.234Z,98.84
2023-03-31T11:16:19.267Z,98.50
2023-03-31T11:19:03.908Z,96.45
2023-03-31T11:21:39.877Z,97.65
2023-03-31T11:24:18.772Z,95.39
2023-03-31T11:26:56.531Z,98.66
2023-03-31T11:29:36.697Z,100.00
2023-03-31T11:32:17.877Z,99.15
2023-03-31T11:34:57.751Z,100.00
2023-03-31T11:37:42.038Z,97.33
2023-03-31T11:40:19.300Z,97.01
2023-03-31T11:42:54.169Z,95.72
2023-03-31T11:45:28.149Z,98.00
2023-03-31T11:48:05.593Z,98.60
2023-03-31T11:50:44.501Z,100.00
2023-03-31T11:53:19.717Z,100.00
2023-03-31T11:55:53.037Z,100.00
2023-03-31T11:58:32.104Z,100.00
2023-03-31T12:01:07.978Z,100.00
2023-03-31T12:03:41.881Z,100.00
2023-03-31T12:06:17.718Z,100.00
2023-03-31T12:08:52.148Z,100.00
2023-03-31T12:11:28.198Z,100.00
2023-03-31T12:14:04.768Z,100.00
2023-03-31T12:16:37.846Z,100.00
2023-03-31T12:19:13.167Z,99.34
2023-03-31T12:21:50.807Z,98.81
2023-03-31T12:24:22.198Z,100.00
2023-03-31T12:26:59.740Z,100.00
2023-03-31T12:29:33.978Z,100.00
2023-03-31T12:32:07.811Z,99.45
2023-03-31T12:34:43.779Z,98.45
2023-03-31T12:37:27.560Z,99.00
2023-03-31T12:40:03.041Z,97.40
2023-03-31T12:42:49.066Z,98.63
2023-03-31T12:45:27.501Z,99.16
2023-03-31T12:48:12.436Z,99.93
2023-03-31T12:51:00.927Z,100.00
2023-03-31T12:53:35.292Z,100.00
2023-03-31T12:56:07.138Z,100.00
2023-03-31T12:58:42.171Z,100.00
2023-03-31T13:01:30.887Z,100.00
2023-03-31T13:04:12.403Z,100.00
2023-03-31T13:07:09.532Z,100.00
2023-03-31T13:09:49.188Z,100.00
2023-03-31T13:12:25.417Z,100.00
2023-03-31T13:21:12.897Z,100.00
2023-03-31T13:23:48.700Z,100.00
2023-03-31T13:26:37.017Z,100.00
2023-03-31T13:29:24.348Z,100.00
2023-03-31T13:32:12.978Z,100.00
2023-03-31T13:34:51.322Z,100.00
2023-03-31T13:37:33.438Z,100.00
2023-03-31T13:40:19.777Z,100.00
2023-03-31T13:43:01.109Z,100.00
2023-03-31T13:45:45.132Z,100.00
2023-03-31T13:48:34.716Z,100.00
2023-03-31T13:51:30.174Z,100.00
2023-03-31T13:54:11.406Z,100.00
2023-03-31T13:56:57.174Z,100.00
2023-03-31T13:59:42.144Z,100.00
2023-03-31T14:03:03.771Z,100.00
2023-03-31T14:09:39.537Z,100.00
2023-03-31T14:12:56.237Z,100.00
2023-03-31T14:15:37.864Z,100.00
2023-03-31T14:18:22.208Z,100.00
2023-03-31T14:21:14.134Z,100.00
2023-03-31T14:24:29.271Z,100.00
2023-03-31T14:27:40.719Z,100.00
2023-03-31T14:30:54.151Z,100.00
2023-03-31T14:34:04.613Z,100.00
2023-03-31T14:37:05.520Z,100.00
2023-03-31T14:40:31.468Z,100.00
2023-03-31T14:44:03.257Z,100.00
2023-03-31T15:29:48.135Z,100.00
2023-03-31T15:33:18.428Z,100.00
2023-03-31T15:36:55.805Z,100.00
2023-03-31T15:43:44.564Z,100.00
2023-03-31T15:51:06.026Z,100.00
2023-03-31T15:54:15.288Z,100.00
2023-03-31T15:58:07.785Z,100.00
2023-03-31T16:02:05.046Z,100.00
2023-03-31T16:06:42.316Z,100.00
2023-03-31T16:10:02.657Z,100.00
2023-03-31T16:13:11.546Z,100.00
2023-03-31T16:17:06.690Z,100.00
2023-03-31T16:23:48.676Z,100.00
2023-03-31T16:26:24.002Z,100.00
2023-03-31T16:28:55.361Z,100.00
2023-03-31T16:31:36.848Z,100.00
2023-03-31T16:34:07.934Z,100.00
2023-03-31T16:36:37.896Z,100.00
2023-03-31T16:39:09.368Z,100.00
2023-03-31T16:41:40.177Z,100.00
2023-03-31T16:44:12.148Z,100.00
2023-03-31T16:46:46.500Z,100.00
2023-03-31T16:49:19.731Z,100.00
2023-03-31T16:51:50.850Z,100.00
2023-03-31T16:54:21.587Z,100.00
2023-03-31T16:56:53.908Z,100.00
2023-03-31T17:04:16.381Z,100.00
2023-03-31T17:10:54.386Z,100.00
2023-03-31T17:13:25.264Z,100.00
2023-03-31T17:16:04.682Z,100.00
2023-03-31T17:18:47.462Z,100.00
2023-03-31T17:21:22.417Z,100.00
2023-03-31T17:23:54.208Z,100.00
2023-03-31T17:26:28.493Z,100.00
2023-03-31T17:28:58.293Z,100.00
2023-03-31T17:31:31.499Z,100.00
2023-03-31T17:34:06.518Z,100.00
2023-03-31T17:36:45.172Z,100.00
2023-03-31T17:39:16.913Z,100.00
2023-03-31T17:41:48.035Z,100.00
2023-03-31T17:44:18.758Z,100.00
2023-03-31T17:46:49.655Z,100.00
2023-03-31T17:49:19.636Z,100.00
2023-03-31T17:51:51.494Z,100.00
2023-03-31T17:54:22.550Z,100.00
2023-03-31T17:56:56.130Z,100.00
2023-03-31T17:59:28.327Z,100.00
2023-03-31T18:02:02.142Z,100.00
2023-03-31T18:04:34.963Z,100.00
2023-03-31T18:07:09.210Z,100.00
2023-03-31T18:09:46.468Z,100.00
2023-03-31T18:12:20.961Z,100.00
2023-03-31T18:14:55.373Z,100.00
2023-03-31T18:17:30.728Z,100.00
2023-03-31T18:20:04.424Z,100.00
2023-03-31T18:22:38.931Z,100.00
2023-03-31T18:25:13.136Z,100.00
2023-03-31T18:27:48.535Z,100.00
2023-03-31T18:30:21.184Z,100.00
2023-03-31T18:32:55.758Z,100.00
2023-03-31T18:35:29.340Z,100.00
2023-03-31T18:38:04.395Z,100.00
2023-03-31T18:40:37.055Z,100.00
2023-03-31T18:43:12.096Z,100.00
2023-03-31T18:45:43.235Z,100.00
2023-03-31T18:48:24.171Z,100.00
2023-03-31T18:50:55.934Z,100.00
2023-03-31T18:53:31.677Z,100.00
2023-03-31T18:56:04.492Z,100.00
2023-03-31T18:58:39.038Z,100.00
2023-03-31T19:01:12.078Z,100.00
2023-03-31T19:03:49.011Z,100.00
2023-03-31T19:06:23.223Z,100.00
2023-03-31T19:09:00.924Z,100.00
2023-03-31T19:11:34.221Z,100.00
2023-03-31T19:14:07.281Z,100.00
2023-03-31T19:16:42.697Z,100.00
2023-03-31T19:19:12.865Z,100.00
2023-03-31T19:21:45.921Z,100.00
2023-03-31T19:24:27.886Z,100.00
2023-03-31T19:26:59.644Z,100.00
2023-03-31T19:29:40.260Z,100.00
2023-03-31T19:32:19.724Z,100.00
2023-03-31T19:35:05.057Z,100.00
2023-03-31T19:37:36.315Z,100.00
2023-03-31T19:40:19.634Z,100.00
2023-03-31T19:42:52.184Z,100.00
2023-03-31T19:45:23.947Z,100.00
2023-03-31T19:48:06.558Z,100.00
2023-03-31T19:50:40.174Z,100.00
2023-03-31T19:53:10.207Z,100.00
2023-03-31T19:55:57.999Z,100.00
2023-03-31T19:58:31.110Z,100.00
2023-03-31T20:01:02.508Z,100.00
2023-03-31T20:03:33.356Z,100.00
2023-03-31T20:06:12.269Z,100.00
2023-03-31T20:08:43.216Z,100.00
2023-03-31T20:11:19.440Z,100.00
2023-03-31T20:13:53.104Z,100.00
2023-03-31T20:16:26.931Z,100.00
2023-03-31T20:19:02.460Z,100.00
2023-03-31T20:21:35.141Z,100.00
2023-03-31T20:24:07.286Z,100.00
2023-03-31T20:26:39.194Z,100.00
2023-03-31T20:29:11.092Z,100.00
2023-03-31T20:31:44.130Z,100.00
2023-03-31T20:34:17.003Z,100.00
2023-03-31T20:36:49.488Z,100.00
2023-03-31T20:39:20.112Z,100.00
2023-03-31T20:41:52.145Z,100.00
2023-03-31T20:44:22.924Z,100.00
2023-03-31T20:46:55.216Z,100.00
2023-03-31T20:49:25.015Z,100.00
2023-03-31T20:51:55.058Z,100.00
2023-03-31T20:54:24.885Z,100.00
2023-03-31T20:56:56.719Z,100.00
2023-03-31T20:59:27.404Z,100.00
2023-03-31T21:01:58.379Z,100.00
2023-03-31T21:04:28.988Z,100.00
2023-03-31T21:07:00.627Z,100.00
2023-03-31T21:09:32.418Z,100.00
2023-03-31T21:12:05.504Z,100.00
2023-03-31T21:34:09.203Z,100.00
2023-03-31T21:37:23.995Z,100.00
2023-03-31T21:40:02.319Z,100.00
2023-03-31T21:45:37.621Z,100.00
2023-03-31T21:48:29.976Z,100.00
2023-03-31T21:54:59.072Z,100.00
2023-03-31T21:58:11.300Z,100.00
2023-03-31T22:01:56.482Z,100.00
2023-03-31T22:05:01.552Z,100.00
2023-03-31T22:11:54.602Z,100.00
2023-03-31T22:22:11.573Z,100.00
2023-03-31T22:25:18.734Z,100.00
2023-03-31T22:28:00.860Z,100.00
2023-03-31T22:30:32.504Z,100.00
2023-03-31T22:33:02.877Z,100.00
2023-03-31T22:35:32.871Z,100.00
2023-03-31T22:38:04.012Z,100.00
2023-03-31T22:40:35.348Z,100.00
2023-03-31T22:43:05.589Z,100.00
2023-03-31T22:45:39.260Z,100.00
2023-03-31T22:48:10.265Z,100.00
2023-03-31T22:50:41.409Z,100.00
2023-03-31T22:53:12.105Z,100.00
2023-03-31T22:55:54.366Z,100.00
2023-03-31T22:58:25.030Z,100.00
2023-03-31T23:00:59.499Z,100.00
2023-03-31T23:03:29.839Z,100.00
2023-03-31T23:06:03.046Z,100.00
2023-03-31T23:08:33.692Z,100.00
2023-03-31T23:11:03.631Z,100.00
2023-03-31T23:13:33.818Z,100.00
2023-03-31T23:16:08.719Z,100.00
2023-03-31T23:18:44.508Z,100.00
2023-03-31T23:21:14.801Z,100.00
2023-03-31T23:23:44.867Z,100.00
2023-03-31T23:26:16.171Z,100.00
2023-03-31T23:28:48.516Z,100.00
2023-03-31T23:31:20.229Z,100.00
2023-03-31T23:33:50.530Z,100.00
2023-03-31T23:36:21.583Z,100.00
2023-03-31T23:38:52.720Z,100.00
2023-03-31T23:41:23.076Z,100.00
2023-03-31T23:43:53.473Z,100.00
2023-03-31T23:46:26.370Z,100.00
2023-03-31T23:48:56.663Z,100.00
2023-03-31T23:51:26.481Z,100.00
2023-03-31T23:53:56.721Z,100.00
2023-03-31T23:56:27.641Z,100.00
2023-03-31T23:58:57.751Z,100.00
